createdAt,value
2022-09-13T00:02:20.103Z,8.82
2022-09-13T00:04:47.892Z,7.93
2022-09-13T00:07:15.656Z,9.02
2022-09-13T00:09:43.423Z,8.00
2022-09-13T00:12:12.548Z,7.90
2022-09-13T00:14:40.319Z,6.78
2022-09-13T00:17:08.310Z,7.15
2022-09-13T00:19:36.294Z,7.20
2022-09-13T00:22:06.501Z,7.43
2022-09-13T00:24:34.445Z,6.93
2022-09-13T00:27:02.562Z,7.40
2022-09-13T00:29:31.847Z,6.75
2022-09-13T00:31:59.656Z,6.40
2022-09-13T00:34:27.596Z,7.05
2022-09-13T00:36:55.448Z,6.93
2022-09-13T00:39:23.523Z,7.20
2022-09-13T00:41:51.677Z,7.13
2022-09-13T00:44:51.599Z,7.72
2022-09-13T00:47:23.957Z,7.45
2022-09-13T00:49:56.176Z,8.02
2022-09-13T00:52:26.974Z,7.45
2022-09-13T00:55:01.320Z,6.85
2022-09-13T00:57:33.076Z,7.57
2022-09-13T01:00:09.147Z,7.50
2022-09-13T01:02:37.142Z,6.57
2022-09-13T01:05:05.517Z,7.05
2022-09-13T01:07:34.267Z,7.10
2022-09-13T01:10:07.601Z,7.68
2022-09-13T01:12:40.515Z,7.38
2022-09-13T01:15:10.329Z,7.32
2022-09-13T01:17:40.081Z,7.90
2022-09-13T01:20:11.136Z,7.53
2022-09-13T01:23:07.958Z,6.85
2022-09-13T01:26:02.819Z,6.88
2022-09-13T01:28:58.966Z,6.88
2022-09-13T01:31:36.502Z,6.60
2022-09-13T01:34:16.321Z,6.18
2022-09-13T01:36:56.319Z,5.63
2022-09-13T01:39:34.895Z,5.45
2022-09-13T01:42:17.571Z,5.78
2022-09-13T01:45:01.517Z,6.57
2022-09-13T01:47:35.919Z,6.75
2022-09-13T01:50:16.539Z,6.10
2022-09-13T01:52:52.404Z,6.25
2022-09-13T01:55:28.198Z,6.07
2022-09-13T01:58:03.740Z,6.03
2022-09-13T02:00:38.413Z,6.47
2022-09-13T02:03:12.503Z,5.20
2022-09-13T02:05:44.075Z,6.20
2022-09-13T02:08:18.059Z,5.97
2022-09-13T02:10:51.260Z,6.43
2022-09-13T02:13:23.631Z,5.80
2022-09-13T02:15:55.703Z,6.10
2022-09-13T02:18:29.470Z,5.47
2022-09-13T02:21:01.913Z,5.43
2022-09-13T02:23:38.737Z,5.65
2022-09-13T02:26:08.591Z,5.38
2022-09-13T02:28:40.916Z,5.00
2022-09-13T02:31:10.309Z,5.90
2022-09-13T02:33:44.965Z,5.72
2022-09-13T02:36:16.399Z,5.95
2022-09-13T02:38:48.198Z,5.97
2022-09-13T02:41:23.524Z,5.55
2022-09-13T02:43:56.450Z,6.00
2022-09-13T02:46:40.902Z,6.47
2022-09-13T02:49:16.884Z,6.00
2022-09-13T02:51:53.527Z,5.50
2022-09-13T02:54:31.451Z,5.80
2022-09-13T02:57:06.126Z,6.40
2022-09-13T02:59:34.619Z,6.05
2022-09-13T03:02:06.640Z,6.63
2022-09-13T03:04:36.795Z,6.88
2022-09-13T03:07:05.100Z,5.93
2022-09-13T03:09:33.671Z,5.95
2022-09-13T03:12:22.764Z,5.45
2022-09-13T03:14:56.006Z,6.25
2022-09-13T03:17:37.040Z,5.80
2022-09-13T03:20:13.237Z,6.88
2022-09-13T03:23:13.945Z,6.18
2022-09-13T03:25:57.821Z,5.13
2022-09-13T03:28:35.802Z,6.72
2022-09-13T03:31:10.228Z,6.53
2022-09-13T03:33:48.126Z,6.45
2022-09-13T03:36:22.753Z,6.32
2022-09-13T03:38:57.641Z,6.10
2022-09-13T03:41:28.795Z,6.57
2022-09-13T03:44:00.707Z,7.03
2022-09-13T03:46:33.593Z,6.90
2022-09-13T03:49:04.310Z,6.88
2022-09-13T03:51:34.274Z,6.90
2022-09-13T03:54:05.551Z,6.15
2022-09-13T03:56:33.398Z,6.95
2022-09-13T03:59:01.304Z,7.03
2022-09-13T04:01:29.341Z,6.38
2022-09-13T04:03:57.312Z,7.32
2022-09-13T04:06:25.100Z,7.22
2022-09-13T04:08:54.425Z,7.18
2022-09-13T04:11:22.138Z,6.68
2022-09-13T04:13:50.511Z,7.45
2022-09-13T04:16:18.573Z,6.60
2022-09-13T04:18:46.413Z,7.43
2022-09-13T04:21:14.140Z,6.40
2022-09-13T04:23:42.091Z,6.95
2022-09-13T04:26:11.626Z,6.90
2022-09-13T04:28:39.370Z,7.10
2022-09-13T04:31:07.265Z,7.15
2022-09-13T04:33:36.629Z,7.70
2022-09-13T04:36:04.466Z,7.05
2022-09-13T04:38:32.406Z,6.18
2022-09-13T04:41:00.096Z,6.80
2022-09-13T04:43:29.206Z,6.78
2022-09-13T04:46:01.022Z,6.50
2022-09-13T04:48:29.565Z,5.93
2022-09-13T04:51:02.940Z,6.35
2022-09-13T04:53:30.834Z,5.40
2022-09-13T04:56:01.799Z,6.32
2022-09-13T04:58:31.175Z,6.35
2022-09-13T05:01:02.546Z,6.47
2022-09-13T05:03:31.132Z,6.40
2022-09-13T05:06:04.279Z,6.63
2022-09-13T05:08:32.634Z,6.60
2022-09-13T05:11:00.551Z,6.50
2022-09-13T05:13:29.801Z,6.72
2022-09-13T05:15:58.067Z,5.90
2022-09-13T05:18:27.990Z,5.97
2022-09-13T05:20:56.330Z,6.38
2022-09-13T05:23:25.098Z,6.63
2022-09-13T05:25:56.540Z,6.15
2022-09-13T05:28:25.256Z,6.35
2022-09-13T05:30:58.763Z,5.80
2022-09-13T05:33:27.777Z,6.05
2022-09-13T05:35:55.871Z,5.72
2022-09-13T05:38:24.150Z,5.25
2022-09-13T05:40:57.052Z,5.88
2022-09-13T05:43:26.437Z,6.15
2022-09-13T05:46:03.642Z,5.78
2022-09-13T05:48:32.301Z,6.38
2022-09-13T05:51:06.331Z,6.05
2022-09-13T05:53:34.291Z,6.43
2022-09-13T05:56:02.441Z,6.75
2022-09-13T05:58:30.181Z,5.47
2022-09-13T06:00:59.198Z,6.07
2022-09-13T06:03:28.478Z,6.03
2022-09-13T06:05:57.378Z,6.43
2022-09-13T06:08:25.728Z,6.32
2022-09-13T06:10:58.092Z,6.00
2022-09-13T06:13:26.862Z,6.43
2022-09-13T06:15:55.671Z,6.60
2022-09-13T06:18:24.645Z,7.10
2022-09-13T06:20:59.554Z,6.75
2022-09-13T06:23:28.444Z,7.18
2022-09-13T06:26:03.846Z,6.60
2022-09-13T06:28:36.793Z,9.02
2022-09-13T06:31:07.634Z,6.88
2022-09-13T06:33:36.154Z,8.15
2022-09-13T06:36:08.177Z,7.78
2022-09-13T06:38:36.255Z,7.70
2022-09-13T06:41:06.093Z,8.93
2022-09-13T06:43:34.280Z,8.52
2022-09-13T06:46:03.264Z,8.85
2022-09-13T06:48:34.592Z,7.93
2022-09-13T06:51:03.596Z,6.90
2022-09-13T06:53:33.981Z,7.88
2022-09-13T06:56:03.491Z,7.78
2022-09-13T06:58:33.486Z,7.00
2022-09-13T07:01:12.079Z,6.97
2022-09-13T07:03:41.427Z,6.00
2022-09-13T07:06:13.894Z,5.75
2022-09-13T07:08:44.573Z,5.45
2022-09-13T07:11:15.634Z,5.03
2022-09-13T07:13:43.554Z,6.22
2022-09-13T07:16:12.615Z,5.60
2022-09-13T07:18:40.441Z,5.47
2022-09-13T07:21:09.582Z,5.70
2022-09-13T07:23:39.019Z,4.97
2022-09-13T07:26:09.271Z,4.63
2022-09-13T07:28:39.082Z,5.20
2022-09-13T07:31:09.534Z,4.65
2022-09-13T07:33:38.067Z,6.25
2022-09-13T07:36:07.292Z,5.47
2022-09-13T07:38:36.275Z,5.22
2022-09-13T07:41:06.659Z,5.85
2022-09-13T07:43:36.296Z,6.03
2022-09-13T07:46:05.935Z,5.13
2022-09-13T07:48:36.002Z,3.80
2022-09-13T07:51:05.761Z,3.60
2022-09-13T07:53:35.355Z,3.78
2022-09-13T07:56:03.981Z,3.55
2022-09-13T07:58:33.032Z,3.63
2022-09-13T08:01:06.317Z,2.97
2022-09-13T08:03:35.041Z,3.53
2022-09-13T08:06:03.316Z,3.25
2022-09-13T08:08:32.206Z,3.85
2022-09-13T08:11:00.994Z,3.70
2022-09-13T08:13:29.746Z,2.50
2022-09-13T08:15:57.926Z,3.08
2022-09-13T08:18:27.138Z,3.38
2022-09-13T08:20:57.973Z,2.58
2022-09-13T08:23:25.962Z,2.60
2022-09-13T08:25:53.959Z,3.00
2022-09-13T08:28:27.522Z,3.25
2022-09-13T08:30:55.676Z,3.17
2022-09-13T08:33:23.501Z,4.03
2022-09-13T08:35:53.579Z,3.60
2022-09-13T08:38:21.561Z,3.15
2022-09-13T08:40:54.259Z,2.20
2022-09-13T08:43:32.763Z,2.10
2022-09-13T08:46:05.802Z,2.63
2022-09-13T08:48:36.579Z,2.42
2022-09-13T08:51:08.787Z,2.22
2022-09-13T08:53:45.882Z,1.98
2022-09-13T08:56:19.662Z,1.80
2022-09-13T08:59:13.053Z,2.45
2022-09-13T09:01:52.636Z,1.73
2022-09-13T09:04:38.563Z,2.20
2022-09-13T09:07:12.591Z,1.73
2022-09-13T09:09:46.575Z,1.10
2022-09-13T09:12:23.839Z,0.88
2022-09-13T09:15:01.699Z,0.60
2022-09-13T09:17:34.213Z,0.80
2022-09-13T09:20:10.349Z,0.98
2022-09-13T09:22:39.707Z,0.85
2022-09-13T09:25:10.544Z,0.63
2022-09-13T09:27:38.602Z,0.70
2022-09-13T09:30:13.330Z,0.70
2022-09-13T09:32:59.174Z,0.93
2022-09-13T09:35:37.845Z,0.77
2022-09-13T09:38:34.945Z,1.05
2022-09-13T09:41:06.756Z,0.88
2022-09-13T09:43:40.333Z,0.55
2022-09-13T09:46:11.845Z,0.95
2022-09-13T09:48:45.218Z,0.70
2022-09-13T09:51:15.701Z,0.90
2022-09-13T09:53:48.215Z,0.73
2022-09-13T09:56:23.846Z,0.73
2022-09-13T09:58:54.188Z,0.35
2022-09-13T10:01:26.141Z,0.80
2022-09-13T10:04:02.143Z,0.57
2022-09-13T10:06:31.012Z,0.70
2022-09-13T10:09:02.393Z,0.85
2022-09-13T10:11:41.846Z,0.60
2022-09-13T10:14:30.457Z,0.63
2022-09-13T10:17:17.882Z,0.73
2022-09-13T10:19:58.638Z,1.10
2022-09-13T10:22:27.448Z,0.70
2022-09-13T10:24:57.055Z,0.47
2022-09-13T10:27:31.090Z,0.80
2022-09-13T10:30:02.060Z,0.60
2022-09-13T10:32:30.753Z,0.52
2022-09-13T10:35:08.945Z,0.40
2022-09-13T10:37:37.511Z,0.93
2022-09-13T10:40:14.414Z,0.50
2022-09-13T10:42:51.678Z,0.75
2022-09-13T10:45:24.435Z,0.68
2022-09-13T10:47:55.163Z,0.95
2022-09-13T10:50:25.867Z,0.65
2022-09-13T10:52:54.429Z,0.77
2022-09-13T10:55:33.132Z,1.15
2022-09-13T10:58:15.959Z,0.73
2022-09-13T11:01:08.741Z,0.70
2022-09-13T11:03:55.813Z,1.00
2022-09-13T11:06:31.706Z,0.70
2022-09-13T11:09:09.386Z,0.50
2022-09-13T11:11:44.254Z,0.50
2022-09-13T11:14:26.204Z,0.73
2022-09-13T11:17:04.541Z,0.57
2022-09-13T11:19:56.898Z,0.88
2022-09-13T11:22:40.803Z,1.30
2022-09-13T11:25:20.719Z,0.80
2022-09-13T11:27:59.479Z,0.88
2022-09-13T11:30:32.414Z,0.70
2022-09-13T11:33:31.286Z,0.68
2022-09-13T11:36:31.236Z,0.80
2022-09-13T11:39:09.001Z,0.60
2022-09-13T11:41:44.366Z,0.82
2022-09-13T11:44:39.538Z,0.95
2022-09-13T11:47:17.637Z,0.60
2022-09-13T11:50:05.322Z,0.47
2022-09-13T11:52:46.448Z,0.70
2022-09-13T11:55:19.259Z,0.57
2022-09-13T11:57:51.283Z,0.30
2022-09-13T12:00:25.999Z,0.50
2022-09-13T12:03:03.559Z,0.60
2022-09-13T12:05:34.971Z,0.60
2022-09-13T12:08:07.797Z,0.73
2022-09-13T12:10:42.858Z,0.60
2022-09-13T12:13:16.046Z,0.70
2022-09-13T12:15:47.701Z,0.80
2022-09-13T12:18:20.689Z,0.52
2022-09-13T12:20:52.323Z,0.30
2022-09-13T12:23:25.247Z,0.40
2022-09-13T12:25:59.203Z,0.40
2022-09-13T12:28:30.736Z,0.55
2022-09-13T12:31:05.721Z,0.40
2022-09-13T12:33:33.819Z,0.65
2022-09-13T12:36:50.594Z,0.50
2022-09-13T12:39:49.884Z,0.30
2022-09-13T12:42:59.105Z,0.60
2022-09-13T12:45:40.299Z,0.22
2022-09-13T12:48:42.755Z,0.30
2022-09-13T12:51:19.485Z,0.35
2022-09-13T12:54:05.775Z,0.35
2022-09-13T12:56:57.146Z,0.40
2022-09-13T12:59:50.701Z,0.30
2022-09-13T13:02:29.470Z,0.45
2022-09-13T13:05:03.528Z,0.60
2022-09-13T13:07:34.922Z,1.45
2022-09-13T13:10:03.332Z,0.30
2022-09-13T13:12:34.435Z,0.40
2022-09-13T13:15:02.883Z,0.40
2022-09-13T13:17:43.797Z,0.57
2022-09-13T13:20:47.277Z,0.45
2022-09-13T13:23:25.328Z,0.60
2022-09-13T13:26:02.659Z,0.40
2022-09-13T13:28:52.007Z,0.40
2022-09-13T13:31:40.245Z,0.40
2022-09-13T13:34:35.121Z,0.65
2022-09-13T13:37:06.696Z,0.40
2022-09-13T13:39:37.762Z,0.47
2022-09-13T13:42:14.617Z,0.50
2022-09-13T13:45:20.188Z,0.20
2022-09-13T13:48:11.636Z,0.25
2022-09-13T13:51:31.633Z,0.20
2022-09-13T13:54:05.641Z,0.63
2022-09-13T13:56:48.177Z,0.30
2022-09-13T13:59:23.464Z,0.30
2022-09-13T14:01:55.629Z,0.45
2022-09-13T14:05:00.016Z,0.50
2022-09-13T14:07:59.458Z,0.30
2022-09-13T14:10:40.159Z,0.20
2022-09-13T14:13:23.779Z,0.25
2022-09-13T14:16:02.021Z,0.28
2022-09-13T14:18:59.428Z,0.40
2022-09-13T14:21:29.409Z,0.40
2022-09-13T14:24:16.949Z,0.30
2022-09-13T14:26:47.424Z,0.10
2022-09-13T14:29:19.302Z,0.70
2022-09-13T14:31:48.681Z,0.30
2022-09-13T14:34:22.818Z,0.20
2022-09-13T14:36:56.939Z,0.20
2022-09-13T14:39:25.606Z,0.40
2022-09-13T14:42:01.447Z,0.30
2022-09-13T14:44:30.200Z,0.47
2022-09-13T14:47:10.073Z,0.68
2022-09-13T14:49:45.281Z,0.30
2022-09-13T14:52:20.443Z,0.60
2022-09-13T14:54:52.959Z,0.55
2022-09-13T14:57:28.631Z,0.40
2022-09-13T14:59:59.924Z,0.50
2022-09-13T15:02:30.984Z,0.40
2022-09-13T15:05:00.632Z,1.13
2022-09-13T15:07:31.650Z,0.57
2022-09-13T15:10:08.910Z,0.30
2022-09-13T15:12:39.230Z,0.52
2022-09-13T15:15:37.643Z,0.35
2022-09-13T15:18:07.778Z,0.50
2022-09-13T15:20:50.607Z,0.55
2022-09-13T15:23:20.424Z,0.52
2022-09-13T15:25:54.817Z,0.60
2022-09-13T15:28:29.142Z,0.60
2022-09-13T15:30:59.524Z,0.98
2022-09-13T15:33:30.399Z,0.52
2022-09-13T15:36:31.854Z,0.55
2022-09-13T15:39:16.745Z,0.45
2022-09-13T15:41:53.964Z,0.40
2022-09-13T15:44:24.457Z,0.30
2022-09-13T15:46:54.150Z,0.60
2022-09-13T15:49:26.650Z,0.43
2022-09-13T15:51:56.363Z,0.50
2022-09-13T15:54:24.647Z,0.70
2022-09-13T15:56:53.082Z,0.50
2022-09-13T15:59:24.372Z,0.20
2022-09-13T16:01:53.497Z,0.40
2022-09-13T16:04:21.967Z,0.40
2022-09-13T16:06:50.786Z,0.30
2022-09-13T16:09:23.407Z,0.50
2022-09-13T16:11:52.676Z,0.50
2022-09-13T16:14:21.859Z,0.30
2022-09-13T16:16:51.618Z,0.60
2022-09-13T16:19:22.311Z,0.57
2022-09-13T16:21:50.853Z,0.55
2022-09-13T16:24:19.527Z,0.40
2022-09-13T16:26:47.521Z,0.38
2022-09-13T16:29:15.278Z,0.20
2022-09-13T16:31:43.553Z,0.70
2022-09-13T16:34:12.947Z,0.40
2022-09-13T16:36:40.848Z,0.40
2022-09-13T16:39:08.586Z,0.98
2022-09-13T16:41:36.503Z,0.47
2022-09-13T16:44:07.098Z,0.63
2022-09-13T16:46:35.174Z,0.50
2022-09-13T16:49:04.737Z,0.75
2022-09-13T16:51:34.006Z,0.82
2022-09-13T16:54:01.866Z,1.05
2022-09-13T16:56:30.297Z,1.02
2022-09-13T16:58:58.554Z,1.17
2022-09-13T17:01:28.457Z,0.40
2022-09-13T17:03:57.303Z,0.60
2022-09-13T17:06:26.721Z,0.60
2022-09-13T17:09:01.556Z,0.35
2022-09-13T17:11:32.369Z,0.57
2022-09-13T17:14:00.806Z,0.43
2022-09-13T17:16:31.339Z,0.45
2022-09-13T17:19:00.328Z,0.55
2022-09-13T17:21:29.371Z,0.65
2022-09-13T17:23:58.547Z,0.63
2022-09-13T17:26:26.351Z,0.40
2022-09-13T17:28:59.032Z,0.47
2022-09-13T17:31:26.980Z,0.73
2022-09-13T17:33:54.890Z,1.33
2022-09-13T17:36:23.410Z,0.57
2022-09-13T17:38:56.261Z,0.60
2022-09-13T17:41:26.776Z,0.30
2022-09-13T17:43:55.159Z,0.45
2022-09-13T17:46:25.234Z,0.50
2022-09-13T17:48:55.130Z,0.63
2022-09-13T17:51:25.192Z,0.50
2022-09-13T17:53:54.758Z,0.60
2022-09-13T17:56:29.544Z,0.43
2022-09-13T17:58:58.075Z,0.60
2022-09-13T18:01:26.499Z,0.50
2022-09-13T18:03:55.347Z,0.70
2022-09-13T18:06:26.186Z,0.63
2022-09-13T18:08:54.745Z,0.70
2022-09-13T18:11:24.403Z,0.90
2022-09-13T18:13:52.710Z,0.40
2022-09-13T18:16:22.714Z,0.95
2022-09-13T18:18:52.617Z,0.60
2022-09-13T18:21:22.283Z,1.05
2022-09-13T18:23:52.401Z,0.60
2022-09-13T18:26:22.147Z,0.82
2022-09-13T18:28:56.897Z,0.47
2022-09-13T18:31:25.813Z,0.70
2022-09-13T18:33:57.981Z,0.30
2022-09-13T18:36:27.032Z,0.43
2022-09-13T18:38:56.245Z,0.47
2022-09-13T18:41:25.633Z,1.67
2022-09-13T18:43:56.494Z,0.50
2022-09-13T18:46:27.355Z,0.35
2022-09-13T18:48:57.631Z,0.80
2022-09-13T18:51:27.448Z,0.55
2022-09-13T18:53:56.631Z,0.30
2022-09-13T18:56:25.494Z,0.63
2022-09-13T18:58:55.422Z,0.52
2022-09-13T19:01:25.669Z,0.88
2022-09-13T19:03:55.590Z,0.73
2022-09-13T19:06:25.282Z,0.50
2022-09-13T19:08:54.492Z,0.57
2022-09-13T19:11:45.190Z,0.70
2022-09-13T19:14:16.111Z,0.68
2022-09-13T19:16:44.060Z,0.55
2022-09-13T19:19:12.286Z,0.40
2022-09-13T19:21:40.251Z,1.40
2022-09-13T19:24:16.126Z,0.90
2022-09-13T19:26:46.516Z,0.52
2022-09-13T19:29:21.698Z,0.93
2022-09-13T19:31:52.411Z,0.73
2022-09-13T19:34:24.358Z,0.80
2022-09-13T19:36:57.784Z,0.70
2022-09-13T19:39:29.645Z,0.60
2022-09-13T19:41:58.714Z,0.55
2022-09-13T19:44:28.213Z,0.60
2022-09-13T19:47:23.850Z,0.80
2022-09-13T19:49:44.570Z,0.50
2022-09-13T19:52:12.363Z,0.40
2022-09-13T19:54:40.174Z,1.00
2022-09-13T19:57:09.541Z,0.82
2022-09-13T19:59:38.656Z,0.60
2022-09-13T20:02:06.967Z,0.60
2022-09-13T20:04:35.250Z,0.70
2022-09-13T20:07:03.004Z,0.60
2022-09-13T20:09:31.826Z,0.65
2022-09-13T20:12:00.571Z,0.40
2022-09-13T20:14:28.767Z,0.85
2022-09-13T20:16:58.652Z,0.60
2022-09-13T20:19:46.436Z,0.50
2022-09-13T20:22:14.350Z,0.50
2022-09-13T20:24:43.340Z,0.60
2022-09-13T20:27:11.499Z,0.57
2022-09-13T20:29:40.275Z,1.05
2022-09-13T20:32:10.954Z,0.40
2022-09-13T20:34:39.204Z,0.50
2022-09-13T20:37:07.104Z,0.50
2022-09-13T20:39:35.124Z,1.20
2022-09-13T20:42:03.002Z,1.20
2022-09-13T20:44:31.034Z,0.50
2022-09-13T20:46:59.073Z,1.15
2022-09-13T20:49:28.386Z,0.90
2022-09-13T20:51:56.256Z,1.15
2022-09-13T20:54:24.257Z,0.80
2022-09-13T20:56:54.170Z,0.70
2022-09-13T20:59:22.785Z,0.60
2022-09-13T21:01:51.031Z,0.70
2022-09-13T21:04:19.089Z,0.57
2022-09-13T21:07:05.999Z,1.08
2022-09-13T21:09:33.955Z,1.42
2022-09-13T21:12:02.373Z,0.70
2022-09-13T21:14:32.489Z,1.48
2022-09-13T21:17:00.478Z,0.80
2022-09-13T21:19:29.833Z,0.57
2022-09-13T21:21:59.000Z,0.60
2022-09-13T21:24:26.916Z,0.88
2022-09-13T21:26:54.650Z,0.65
2022-09-13T21:29:22.575Z,1.20
2022-09-13T21:31:50.622Z,0.80
2022-09-13T21:34:20.150Z,1.02
2022-09-13T21:36:49.267Z,0.93
2022-09-13T21:39:19.392Z,0.75
2022-09-13T21:41:47.551Z,0.80
2022-09-13T21:44:15.932Z,1.00
2022-09-13T21:46:45.974Z,0.68
2022-09-13T21:49:15.822Z,0.22
2022-09-13T21:51:45.321Z,1.00
2022-09-13T21:54:14.620Z,0.73
2022-09-13T21:56:45.338Z,1.38
2022-09-13T21:59:15.563Z,0.95
2022-09-13T22:01:46.662Z,0.50
2022-09-13T22:04:18.214Z,0.60
2022-09-13T22:06:47.732Z,0.65
2022-09-13T22:09:16.426Z,0.70
2022-09-13T22:11:47.345Z,0.50
2022-09-13T22:14:16.978Z,0.55
2022-09-13T22:16:46.424Z,0.73
2022-09-13T22:19:16.572Z,0.93
2022-09-13T22:21:46.445Z,0.40
2022-09-13T22:24:16.828Z,0.70
2022-09-13T22:26:47.672Z,0.88
2022-09-13T22:29:16.137Z,0.60
2022-09-13T22:31:46.041Z,0.40
2022-09-13T22:34:15.533Z,0.82
2022-09-13T22:36:44.358Z,0.43
2022-09-13T22:39:13.181Z,0.50
2022-09-13T22:41:41.587Z,1.38
2022-09-13T22:44:11.883Z,0.52
2022-09-13T22:46:42.088Z,0.60
2022-09-13T22:49:13.499Z,0.40
2022-09-13T22:51:41.751Z,0.40
2022-09-13T22:54:09.538Z,0.82
2022-09-13T22:56:37.934Z,1.00
2022-09-13T22:59:08.068Z,0.80
2022-09-13T23:01:38.398Z,0.47
2022-09-13T23:04:07.107Z,0.60
2022-09-13T23:06:35.963Z,1.00
2022-09-13T23:09:05.768Z,0.60
2022-09-13T23:11:35.773Z,0.85
2022-09-13T23:14:05.957Z,0.50
2022-09-13T23:16:35.743Z,0.30
2022-09-13T23:19:05.261Z,0.40
2022-09-13T23:21:34.801Z,0.40
2022-09-13T23:24:04.161Z,0.25
2022-09-13T23:26:33.369Z,0.55
2022-09-13T23:29:03.229Z,0.50
2022-09-13T23:31:32.690Z,0.43
2022-09-13T23:34:03.932Z,0.52
2022-09-13T23:36:35.547Z,0.57
2022-09-13T23:39:04.291Z,0.35
2022-09-13T23:41:33.206Z,0.68
2022-09-13T23:44:01.551Z,0.43
2022-09-13T23:46:29.625Z,0.65
2022-09-13T23:48:57.854Z,0.80
2022-09-13T23:51:27.768Z,0.85
2022-09-13T23:54:00.517Z,0.47
2022-09-13T23:56:29.969Z,1.73
2022-09-13T23:58:58.974Z,0.55
